Time;durP1;ratioP1;P1;durP2;ratioP2;P2;SDS_P1;SDS_P2;PMS_P1;PMS_P2;Temp;Humidity;BMP_temperature;BMP_pressure;BME280_temperature;BME280_humidity;BME280_pressure;Samples;Min_cycle;Max_cycle;Signal;HPM_P1;HPM_P2
2021/12/27 00:00:10;;;;;;;34.70;15.97;;;-5.30;99.90;;;;;;4995155;28;20196;-68
2021/12/27 00:02:39;;;;;;;33.70;17.40;;;-5.30;99.90;;;;;;4976035;28;20231;-67
2021/12/27 00:05:06;;;;;;;38.40;18.67;;;-5.30;99.90;;;;;;4982498;28;20203;-67
2021/12/27 00:07:33;;;;;;;40.13;17.90;;;-5.20;99.90;;;;;;4995249;28;20204;-67
2021/12/27 00:10:01;;;;;;;43.60;18.97;;;-5.20;99.90;;;;;;4994951;28;20210;-68
2021/12/27 00:12:28;;;;;;;43.47;18.53;;;-5.10;99.90;;;;;;4994933;28;20211;-67
2021/12/27 00:14:54;;;;;;;42.53;18.73;;;-5.10;99.90;;;;;;4994905;28;20278;-66
2021/12/27 00:17:21;;;;;;;40.20;18.07;;;-5.10;99.90;;;;;;4995004;28;20209;-67
2021/12/27 00:19:49;;;;;;;39.87;17.87;;;-5.10;99.90;;;;;;4994422;28;20215;-68
2021/12/27 00:22:16;;;;;;;39.07;17.70;;;-5.10;99.90;;;;;;4994970;28;20207;-67
2021/12/27 00:24:46;;;;;;;35.73;15.97;;;-5.00;99.90;;;;;;4994631;28;20227;-66
2021/12/27 00:27:14;;;;;;;33.90;16.17;;;-5.00;99.90;;;;;;4994824;28;20203;-67
2021/12/27 00:29:41;;;;;;;33.53;16.47;;;-5.00;99.90;;;;;;4994665;28;20207;-67
2021/12/27 00:32:08;;;;;;;34.90;16.60;;;-5.00;99.90;;;;;;4994864;28;20254;-67
2021/12/27 00:34:36;;;;;;;35.10;17.23;;;-5.00;99.90;;;;;;4994709;28;20199;-67
2021/12/27 00:37:04;;;;;;;33.57;16.90;;;-4.90;99.90;;;;;;4994348;28;20275;-67
2021/12/27 00:39:31;;;;;;;32.50;16.37;;;-4.90;99.90;;;;;;4994436;28;20302;-68
2021/12/27 00:41:58;;;;;;;36.90;16.37;;;-4.90;99.90;;;;;;4994458;28;20211;-67
2021/12/27 00:44:25;;;;;;;35.60;17.20;;;-4.90;99.90;;;;;;4994375;28;20241;-66
2021/12/27 00:46:52;;;;;;;32.73;16.80;;;-4.90;99.90;;;;;;4994415;28;20213;-67
2021/12/27 00:49:19;;;;;;;35.50;17.30;;;-4.90;99.90;;;;;;4993834;28;20207;-67
2021/12/27 00:51:46;;;;;;;39.43;18.33;;;-4.90;99.90;;;;;;4994057;28;20214;-68
2021/12/27 00:54:15;;;;;;;39.80;19.13;;;-4.90;99.90;;;;;;4994559;28;20229;-67
2021/12/27 00:56:42;;;;;;;42.60;20.53;;;-4.90;99.90;;;;;;4994433;28;20214;-66
2021/12/27 00:59:09;;;;;;;42.13;20.67;;;-4.90;99.90;;;;;;4993972;28;20231;-68
2021/12/27 01:01:36;;;;;;;44.03;20.03;;;-4.90;99.90;;;;;;4993914;28;20218;-67
2021/12/27 01:04:03;;;;;;;36.50;18.07;;;-4.90;99.90;;;;;;4993915;28;20230;-68
2021/12/27 01:06:30;;;;;;;39.93;18.43;;;-4.90;99.90;;;;;;4993335;28;20297;-68
2021/12/27 01:08:57;;;;;;;38.60;18.30;;;-4.90;99.90;;;;;;4994193;28;20207;-69
2021/12/27 01:11:35;;;;;;;38.17;17.23;;;-4.90;99.90;;;;;;4993381;28;20195;-67
2021/12/27 01:14:08;;;;;;;34.03;17.23;;;-4.90;99.90;;;;;;4993768;28;20187;-67
2021/12/27 01:16:36;;;;;;;33.93;15.87;;;-4.90;99.90;;;;;;4993562;28;20254;-68
2021/12/27 01:19:05;;;;;;;32.77;16.40;;;-4.80;99.90;;;;;;4993976;28;20566;-67
2021/12/27 01:21:32;;;;;;;36.87;17.43;;;-4.90;99.90;;;;;;4993645;28;20208;-68
2021/12/27 01:23:59;;;;;;;39.53;17.33;;;-4.80;99.90;;;;;;4993700;28;20562;-70
2021/12/27 01:26:27;;;;;;;38.93;16.93;;;-4.80;99.90;;;;;;4993675;28;20582;-69
2021/12/27 01:28:56;;;;;;;33.63;16.60;;;-4.70;99.90;;;;;;4993355;28;20656;-69
2021/12/27 01:31:23;;;;;;;37.03;17.07;;;-4.70;99.90;;;;;;4993829;28;20211;-69
2021/12/27 01:33:50;;;;;;;33.90;16.70;;;-4.70;99.90;;;;;;4993423;28;20203;-68
2021/12/27 01:36:17;;;;;;;32.60;16.13;;;-4.70;99.90;;;;;;4993576;28;20250;-67
2021/12/27 01:38:45;;;;;;;33.23;15.10;;;-4.60;99.90;;;;;;4993265;28;20211;-66
2021/12/27 01:41:15;;;;;;;33.33;16.03;;;-4.60;99.90;;;;;;4993444;28;20203;-68
2021/12/27 01:43:44;;;;;;;33.73;16.17;;;-4.60;99.90;;;;;;4993284;28;20222;-66
2021/12/27 01:46:13;;;;;;;34.70;16.43;;;-4.60;99.90;;;;;;4992904;28;20227;-69
2021/12/27 01:48:42;;;;;;;31.93;15.70;;;-4.60;99.90;;;;;;4993220;28;20563;-68
2021/12/27 01:51:11;;;;;;;29.93;15.17;;;-4.50;99.90;;;;;;4993266;28;20196;-66
2021/12/27 01:53:41;;;;;;;31.93;14.90;;;-4.50;99.90;;;;;;4991270;28;20321;-67
2021/12/27 01:56:09;;;;;;;31.90;15.30;;;-4.50;99.90;;;;;;4993005;28;20206;-66
2021/12/27 01:58:36;;;;;;;30.43;14.73;;;-4.50;99.90;;;;;;4992347;28;20315;-67
2021/12/27 02:01:07;;;;;;;31.07;14.83;;;-4.50;99.90;;;;;;4992922;28;20208;-68
2021/12/27 02:03:34;;;;;;;36.90;15.83;;;-4.50;99.90;;;;;;4992701;28;20222;-69
2021/12/27 02:06:01;;;;;;;34.40;15.37;;;-4.50;99.90;;;;;;4992762;28;20217;-68
2021/12/27 02:08:29;;;;;;;32.10;15.23;;;-4.40;99.90;;;;;;4992585;28;20206;-69
2021/12/27 02:10:56;;;;;;;32.90;15.37;;;-4.50;99.90;;;;;;4993020;28;20218;-69
2021/12/27 02:13:24;;;;;;;29.40;14.73;;;-4.50;99.90;;;;;;4992433;28;20199;-67
2021/12/27 02:15:51;;;;;;;29.73;15.30;;;-4.40;99.90;;;;;;4992911;28;20624;-68
2021/12/27 02:18:19;;;;;;;31.60;15.27;;;-4.40;99.90;;;;;;4992011;28;20223;-68
2021/12/27 02:20:48;;;;;;;31.43;15.33;;;-4.40;99.90;;;;;;4992102;28;20204;-67
2021/12/27 02:23:17;;;;;;;31.03;14.87;;;-4.30;99.90;;;;;;4992353;28;20226;-67
2021/12/27 02:25:46;;;;;;;29.73;15.07;;;-4.30;99.90;;;;;;4992394;28;20719;-69
2021/12/27 02:28:14;;;;;;;32.87;15.30;;;-4.30;99.90;;;;;;4992515;28;20691;-67
2021/12/27 02:30:42;;;;;;;29.80;13.80;;;-4.30;99.90;;;;;;4992168;28;20549;-66
2021/12/27 02:33:11;;;;;;;29.97;14.70;;;-4.30;99.90;;;;;;4992247;28;20214;-68
2021/12/27 02:35:41;;;;;;;32.40;14.50;;;-4.30;99.90;;;;;;4992411;28;20210;-68
2021/12/27 02:38:13;;;;;;;23.70;14.23;;;-4.30;99.90;;;;;;4992604;28;20203;-67
2021/12/27 02:40:40;;;;;;;27.70;13.63;;;-4.30;99.90;;;;;;4991779;28;20195;-68
2021/12/27 02:43:09;;;;;;;27.13;13.33;;;-4.40;99.90;;;;;;4992277;28;20207;-67
2021/12/27 02:45:38;;;;;;;24.10;13.83;;;-4.40;99.90;;;;;;4992053;28;20214;-67
2021/12/27 02:48:06;;;;;;;25.07;13.53;;;-4.50;99.90;;;;;;4992023;28;20233;-67
2021/12/27 02:50:33;;;;;;;26.20;12.97;;;-4.50;99.90;;;;;;4990671;28;20211;-67
2021/12/27 02:53:00;;;;;;;27.40;13.47;;;-4.60;99.90;;;;;;4991938;28;20683;-67
2021/12/27 02:55:29;;;;;;;25.17;12.97;;;-4.60;99.90;;;;;;4991960;28;20239;-69
2021/12/27 02:57:56;;;;;;;29.00;14.60;;;-4.70;99.90;;;;;;4991938;28;20239;-68
2021/12/27 03:00:27;;;;;;;27.03;13.03;;;-4.70;99.90;;;;;;4991778;28;20202;-67
2021/12/27 03:02:55;;;;;;;27.90;14.37;;;-4.80;99.90;;;;;;4992146;28;20246;-68
2021/12/27 03:05:23;;;;;;;25.27;13.77;;;-4.80;99.90;;;;;;4991665;28;20227;-68
2021/12/27 03:07:51;;;;;;;28.10;14.10;;;-4.70;99.90;;;;;;4992431;28;20207;-68
2021/12/27 03:10:20;;;;;;;26.40;13.03;;;-4.70;99.90;;;;;;4991691;28;20211;-68
2021/12/27 03:12:50;;;;;;;27.50;14.33;;;-4.70;99.90;;;;;;4992118;28;20207;-68
2021/12/27 03:15:19;;;;;;;24.60;13.40;;;-4.70;99.90;;;;;;4991923;28;20200;-67
2021/12/27 03:17:48;;;;;;;24.37;14.03;;;-4.60;99.90;;;;;;4991780;28;20222;-68
2021/12/27 03:20:16;;;;;;;30.27;15.43;;;-4.60;99.90;;;;;;4991563;28;20556;-68
2021/12/27 03:22:43;;;;;;;29.93;14.50;;;-4.60;99.90;;;;;;4992000;28;20207;-67
2021/12/27 03:25:13;;;;;;;30.37;16.13;;;-4.60;99.90;;;;;;4991934;28;20238;-66
2021/12/27 03:27:40;;;;;;;33.40;16.07;;;-4.70;99.90;;;;;;4991541;28;20207;-67
2021/12/27 03:30:12;;;;;;;30.17;15.67;;;-4.80;99.90;;;;;;4993441;28;20214;-67
2021/12/27 03:32:39;;;;;;;31.43;15.50;;;-4.90;99.90;;;;;;4995023;28;20192;-67
2021/12/27 03:35:12;;;;;;;30.37;16.17;;;-4.90;99.90;;;;;;4995535;28;20664;-68
2021/12/27 03:37:41;;;;;;;32.47;16.77;;;-4.90;99.90;;;;;;4995597;28;20196;-68
2021/12/27 03:40:11;;;;;;;30.87;15.73;;;-4.80;99.90;;;;;;4995681;28;20211;-69
2021/12/27 03:42:39;;;;;;;29.63;15.33;;;-4.70;99.90;;;;;;4994757;28;20210;-67
2021/12/27 03:45:07;;;;;;;30.23;15.60;;;-4.70;99.90;;;;;;4995486;28;20242;-68
2021/12/27 03:47:36;;;;;;;29.87;15.20;;;-4.60;99.90;;;;;;4995218;28;20211;-68
2021/12/27 03:50:03;;;;;;;31.40;15.97;;;-4.50;99.90;;;;;;4995651;28;20218;-68
2021/12/27 03:52:30;;;;;;;30.00;15.70;;;-4.50;99.90;;;;;;4994602;28;20200;-67
2021/12/27 03:54:57;;;;;;;41.77;21.50;;;-4.50;99.90;;;;;;4995090;28;20235;-68
2021/12/27 03:57:24;;;;;;;29.37;16.83;;;-4.50;99.90;;;;;;4994649;28;20210;-68
2021/12/27 04:00:14;;;;;;;31.30;16.40;;;-4.50;99.90;;;;;;4994836;28;20267;-67
2021/12/27 04:02:40;;;;;;;36.70;17.97;;;-4.50;99.90;;;;;;4994684;28;20204;-67
2021/12/27 04:05:09;;;;;;;34.03;17.20;;;-4.50;99.90;;;;;;4994124;28;20225;-67
2021/12/27 04:07:37;;;;;;;32.70;16.57;;;-4.50;99.90;;;;;;4995087;28;20676;-69
2021/12/27 04:10:06;;;;;;;33.90;16.70;;;-4.60;99.90;;;;;;4994958;28;20222;-68
2021/12/27 04:12:32;;;;;;;33.47;17.20;;;-4.60;99.90;;;;;;4994487;28;20213;-67
2021/12/27 04:14:59;;;;;;;32.53;16.43;;;-4.50;99.90;;;;;;4994825;28;20206;-67
2021/12/27 04:17:26;;;;;;;33.13;17.97;;;-4.40;99.90;;;;;;4994698;28;20676;-68
2021/12/27 04:19:54;;;;;;;32.00;17.20;;;-4.40;99.90;;;;;;4994605;28;20211;-69
2021/12/27 04:22:21;;;;;;;34.90;18.13;;;-4.40;99.90;;;;;;4994551;28;20207;-66
2021/12/27 04:24:48;;;;;;;32.13;18.07;;;-4.50;99.90;;;;;;4994567;28;20227;-69
2021/12/27 04:27:15;;;;;;;34.63;17.50;;;-4.50;99.90;;;;;;4994267;28;20648;-68
2021/12/27 04:29:42;;;;;;;33.27;18.10;;;-4.40;99.90;;;;;;4994471;28;20210;-69
2021/12/27 04:32:09;;;;;;;34.63;17.93;;;-4.40;99.90;;;;;;4994238;28;20221;-68
2021/12/27 04:34:36;;;;;;;36.30;18.47;;;-4.40;99.90;;;;;;4994598;28;20204;-69
2021/12/27 04:37:04;;;;;;;32.00;17.87;;;-4.30;99.90;;;;;;4994711;28;20203;-67
2021/12/27 04:39:31;;;;;;;35.90;18.70;;;-4.30;99.90;;;;;;4994275;28;20204;-68
2021/12/27 04:41:59;;;;;;;35.37;18.13;;;-4.30;99.90;;;;;;4994435;28;20226;-69
2021/12/27 04:44:25;;;;;;;33.47;18.80;;;-4.30;99.90;;;;;;4994134;28;20227;-68
2021/12/27 04:46:52;;;;;;;35.17;18.93;;;-4.30;99.90;;;;;;4994416;28;20207;-68
2021/12/27 04:49:19;;;;;;;35.43;19.00;;;-4.30;99.90;;;;;;4994223;28;20203;-69
2021/12/27 04:51:46;;;;;;;41.03;21.43;;;-4.30;99.90;;;;;;4993897;28;20204;-67
2021/12/27 04:54:14;;;;;;;38.23;20.30;;;-4.40;99.90;;;;;;4993690;28;20219;-67
2021/12/27 04:56:41;;;;;;;40.00;21.57;;;-4.50;99.90;;;;;;4994005;28;20214;-69
2021/12/27 04:59:08;;;;;;;36.87;20.10;;;-4.50;99.90;;;;;;4993815;28;20235;-68
2021/12/27 05:01:35;;;;;;;42.43;21.13;;;-4.60;99.90;;;;;;4993912;28;20214;-67
2021/12/27 05:04:02;;;;;;;40.00;21.03;;;-4.60;99.90;;;;;;4993630;28;20207;-67
2021/12/27 05:06:29;;;;;;;43.03;23.27;;;-4.50;99.90;;;;;;4994212;28;20211;-67
2021/12/27 05:08:56;;;;;;;43.50;22.77;;;-4.60;99.90;;;;;;4994151;28;20230;-67
2021/12/27 05:11:24;;;;;;;44.43;23.47;;;-4.50;99.90;;;;;;4993957;28;20209;-70
2021/12/27 05:13:51;;;;;;;41.23;22.07;;;-4.50;99.90;;;;;;4993764;28;20207;-67
2021/12/27 05:16:18;;;;;;;45.73;23.23;;;-4.50;99.90;;;;;;4993012;28;20202;-67
2021/12/27 05:18:45;;;;;;;49.00;24.27;;;-4.40;99.90;;;;;;4993947;28;20207;-69
2021/12/27 05:21:11;;;;;;;47.57;23.10;;;-4.30;99.90;;;;;;4993322;28;20203;-68
2021/12/27 05:23:38;;;;;;;43.13;22.50;;;-4.30;99.90;;;;;;4993706;28;20227;-68
2021/12/27 05:26:06;;;;;;;51.27;24.20;;;-4.30;99.90;;;;;;4993345;28;20227;-68
2021/12/27 05:28:34;;;;;;;46.47;24.63;;;-4.30;99.90;;;;;;4993806;28;20235;-68
2021/12/27 05:31:01;;;;;;;51.50;24.47;;;-4.30;99.90;;;;;;4993376;28;20215;-68
2021/12/27 05:33:28;;;;;;;52.10;25.53;;;-4.30;99.90;;;;;;4993528;28;20567;-68
2021/12/27 05:35:54;;;;;;;56.80;27.90;;;-4.30;99.90;;;;;;4993258;28;20203;-67
2021/12/27 05:38:21;;;;;;;55.17;26.70;;;-4.30;99.90;;;;;;4992958;28;20208;-68
2021/12/27 05:40:48;;;;;;;58.80;27.93;;;-4.40;99.90;;;;;;4993377;28;20207;-68
2021/12/27 05:43:15;;;;;;;53.30;26.00;;;-4.40;99.90;;;;;;4992494;28;20386;-68
2021/12/27 05:45:43;;;;;;;58.80;28.63;;;-4.40;99.90;;;;;;4992843;28;20219;-68
2021/12/27 05:48:10;;;;;;;58.33;27.93;;;-4.30;99.90;;;;;;4992512;28;20199;-70
2021/12/27 05:50:37;;;;;;;51.67;25.57;;;-4.20;99.90;;;;;;4993296;28;20211;-70
2021/12/27 05:53:04;;;;;;;51.27;25.67;;;-4.30;99.90;;;;;;4992560;28;20215;-71
2021/12/27 05:55:31;;;;;;;48.70;25.77;;;-4.30;99.90;;;;;;4993167;28;20217;-70
2021/12/27 05:57:58;;;;;;;59.27;27.20;;;-4.20;99.90;;;;;;4992488;28;20598;-70
2021/12/27 06:00:25;;;;;;;52.97;26.50;;;-4.20;99.90;;;;;;4992912;28;20196;-70
2021/12/27 06:02:54;;;;;;;54.77;25.50;;;-4.20;99.90;;;;;;4992641;28;20266;-70
2021/12/27 06:05:22;;;;;;;54.53;25.67;;;-4.20;99.90;;;;;;4991553;28;20215;-70
2021/12/27 06:07:49;;;;;;;53.63;26.27;;;-4.30;99.90;;;;;;4991643;28;20209;-68
2021/12/27 06:10:16;;;;;;;50.53;25.03;;;-4.40;99.90;;;;;;4991662;28;20203;-66
2021/12/27 06:12:43;;;;;;;48.37;24.83;;;-4.40;99.90;;;;;;4993999;28;20648;-67
2021/12/27 06:15:10;;;;;;;50.17;24.97;;;-4.50;99.90;;;;;;4991332;28;20199;-68
2021/12/27 06:17:37;;;;;;;49.40;25.00;;;-4.50;99.90;;;;;;4991760;28;20234;-68
2021/12/27 06:20:08;;;;;;;42.30;23.30;;;-4.40;99.90;;;;;;4992838;28;20686;-66
2021/12/27 06:22:36;;;;;;;48.17;23.77;;;-4.50;99.90;;;;;;4992665;28;20198;-67
2021/12/27 06:25:04;;;;;;;45.20;23.07;;;-4.50;99.90;;;;;;4992690;28;20234;-65
2021/12/27 06:27:32;;;;;;;39.17;21.83;;;-4.50;99.90;;;;;;4992567;28;20243;-68
2021/12/27 06:29:59;;;;;;;44.63;23.00;;;-4.60;99.90;;;;;;4992654;28;20618;-66
2021/12/27 06:32:26;;;;;;;48.43;23.87;;;-4.60;99.90;;;;;;4992846;28;20706;-67
2021/12/27 06:34:53;;;;;;;44.70;23.50;;;-4.50;99.90;;;;;;4992378;28;20664;-66
2021/12/27 06:37:21;;;;;;;45.93;23.43;;;-4.50;99.90;;;;;;4992613;28;20211;-70
2021/12/27 06:39:48;;;;;;;45.93;23.07;;;-4.40;99.90;;;;;;4992601;28;20207;-67
2021/12/27 06:42:15;;;;;;;40.60;21.90;;;-4.50;99.90;;;;;;4992701;28;20237;-67
2021/12/27 06:44:41;;;;;;;41.07;21.43;;;-4.50;99.90;;;;;;4992732;28;20214;-66
2021/12/27 06:47:08;;;;;;;44.60;23.40;;;-4.60;99.90;;;;;;4992109;28;20225;-67
2021/12/27 06:49:37;;;;;;;49.87;24.90;;;-4.70;99.90;;;;;;4992650;28;20213;-67
2021/12/27 06:52:05;;;;;;;47.57;24.70;;;-4.60;99.90;;;;;;4992020;28;20257;-69
2021/12/27 06:54:33;;;;;;;49.70;23.93;;;-4.60;99.90;;;;;;4992497;28;20550;-68
2021/12/27 06:57:00;;;;;;;52.10;24.30;;;-4.50;99.90;;;;;;4991570;28;20204;-67
2021/12/27 06:59:27;;;;;;;56.83;28.57;;;-4.50;99.90;;;;;;4992145;28;20250;-69
2021/12/27 07:01:54;;;;;;;46.13;24.40;;;-4.40;99.90;;;;;;4992134;28;20222;-68
2021/12/27 07:04:21;;;;;;;43.87;23.00;;;-4.40;99.90;;;;;;4992214;28;20211;-67
2021/12/27 07:06:48;;;;;;;50.13;23.23;;;-4.50;99.90;;;;;;4990879;28;20239;-66
2021/12/27 07:09:15;;;;;;;44.20;23.73;;;-4.40;99.90;;;;;;4996704;28;20302;-67
2021/12/27 07:11:43;;;;;;;51.53;24.27;;;-4.40;99.90;;;;;;4996503;28;20572;-70
2021/12/27 07:14:10;;;;;;;42.67;23.30;;;-4.30;99.90;;;;;;4996257;28;20207;-69
2021/12/27 07:16:37;;;;;;;50.10;23.10;;;-4.40;99.90;;;;;;4996287;28;20230;-69
2021/12/27 07:19:04;;;;;;;49.07;23.10;;;-4.40;99.90;;;;;;4995970;28;20222;-68
2021/12/27 07:21:31;;;;;;;44.73;23.67;;;-4.30;99.90;;;;;;4996148;28;20203;-68
2021/12/27 07:23:57;;;;;;;49.07;23.60;;;-4.30;99.90;;;;;;4995710;28;20203;-68
2021/12/27 07:26:24;;;;;;;45.23;22.87;;;-4.30;99.90;;;;;;4996345;28;20219;-69
2021/12/27 07:28:52;;;;;;;49.57;23.47;;;-4.30;99.90;;;;;;4996002;28;20662;-69
2021/12/27 07:31:19;;;;;;;44.17;22.27;;;-4.30;99.90;;;;;;4996118;28;20214;-67
2021/12/27 07:33:46;;;;;;;47.63;24.17;;;-4.30;99.90;;;;;;4996157;28;20723;-70
2021/12/27 07:36:13;;;;;;;45.13;22.83;;;-4.30;99.90;;;;;;4996148;28;20200;-68
2021/12/27 07:38:41;;;;;;;46.77;23.17;;;-4.30;99.90;;;;;;4995669;28;20203;-69
2021/12/27 07:41:09;;;;;;;46.37;23.03;;;-4.30;99.90;;;;;;4995995;28;20207;-69
2021/12/27 07:43:36;;;;;;;47.13;22.17;;;-4.20;99.90;;;;;;4995901;28;20203;-67
2021/12/27 07:46:04;;;;;;;48.77;23.70;;;-4.10;99.90;;;;;;4995294;28;20223;-70
2021/12/27 07:48:31;;;;;;;45.83;22.83;;;-4.10;99.90;;;;;;4979413;28;20238;-72
2021/12/27 07:50:58;;;;;;;39.90;21.23;;;-4.00;99.90;;;;;;4995561;28;20218;-70
2021/12/27 07:53:24;;;;;;;44.87;21.30;;;-4.00;99.90;;;;;;4995443;28;20212;-69
2021/12/27 07:55:51;;;;;;;43.60;21.47;;;-4.00;99.90;;;;;;4995406;28;20458;-69
2021/12/27 07:58:18;;;;;;;35.07;19.00;;;-3.90;99.90;;;;;;4995130;28;20239;-70
2021/12/27 08:00:50;;;;;;;37.93;18.17;;;-4.00;99.90;;;;;;4994961;28;20200;-68
2021/12/27 08:03:18;;;;;;;41.33;19.20;;;-4.00;99.90;;;;;;4995341;28;20202;-67
2021/12/27 08:05:45;;;;;;;36.97;18.63;;;-4.00;99.90;;;;;;4995480;28;20227;-69
2021/12/27 08:08:12;;;;;;;35.17;19.03;;;-4.00;99.90;;;;;;4995710;28;20632;-69
2021/12/27 08:10:39;;;;;;;30.13;17.40;;;-4.10;99.90;;;;;;4995528;28;20214;-69
2021/12/27 08:13:07;;;;;;;36.83;18.70;;;-4.10;99.90;;;;;;4995204;28;20203;-68
2021/12/27 08:15:34;;;;;;;41.00;20.67;;;-4.10;99.90;;;;;;4994935;28;20688;-68
2021/12/27 08:18:00;;;;;;;47.20;22.50;;;-4.20;99.90;;;;;;4994824;28;20231;-69
2021/12/27 08:20:29;;;;;;;47.50;22.43;;;-4.40;99.90;;;;;;4994807;28;20214;-68
2021/12/27 08:22:56;;;;;;;46.33;22.03;;;-4.50;99.90;;;;;;4994789;28;20504;-68
2021/12/27 08:25:22;;;;;;;44.97;21.70;;;-4.40;99.90;;;;;;4995079;28;20678;-67
2021/12/27 08:27:50;;;;;;;41.73;22.03;;;-4.40;99.90;;;;;;4994515;28;20231;-67
2021/12/27 08:30:16;;;;;;;48.57;22.30;;;-4.40;99.90;;;;;;4995523;28;20560;-68
2021/12/27 08:32:45;;;;;;;45.47;21.43;;;-4.40;99.90;;;;;;4995105;28;20683;-69
2021/12/27 08:35:14;;;;;;;49.23;21.93;;;-4.40;99.90;;;;;;4994980;28;20711;-68
2021/12/27 08:37:44;;;;;;;47.60;22.07;;;-4.40;99.90;;;;;;4994515;28;20230;-67
2021/12/27 08:40:12;;;;;;;46.80;22.77;;;-4.30;99.90;;;;;;4994134;28;20203;-67
2021/12/27 08:42:40;;;;;;;53.90;22.87;;;-4.20;99.90;;;;;;4994742;28;20219;-68
2021/12/27 08:45:08;;;;;;;49.70;23.10;;;-4.20;99.90;;;;;;4994894;28;20302;-69
2021/12/27 08:47:35;;;;;;;54.30;24.00;;;-4.20;99.90;;;;;;4994467;28;20204;-69
2021/12/27 08:50:02;;;;;;;47.73;21.87;;;-4.10;99.90;;;;;;4994687;28;20206;-68
2021/12/27 08:52:30;;;;;;;49.10;21.67;;;-4.10;99.90;;;;;;4994966;28;20283;-68
2021/12/27 08:54:58;;;;;;;53.17;24.27;;;-4.20;99.90;;;;;;4994862;28;20215;-69
2021/12/27 08:57:25;;;;;;;54.97;24.53;;;-4.20;99.90;;;;;;4994435;28;20658;-68
2021/12/27 08:59:51;;;;;;;59.10;25.50;;;-4.20;99.90;;;;;;4994174;28;20263;-68
2021/12/27 09:02:18;;;;;;;57.27;25.03;;;-4.10;99.90;;;;;;4994352;28;20382;-68
2021/12/27 09:04:46;;;;;;;54.00;24.53;;;-4.10;99.90;;;;;;4994451;28;20211;-66
2021/12/27 09:07:13;;;;;;;50.50;23.83;;;-4.10;99.90;;;;;;4994335;28;20581;-69
2021/12/27 09:09:40;;;;;;;51.73;23.83;;;-4.10;99.90;;;;;;4994494;28;20218;-70
2021/12/27 09:12:10;;;;;;;53.83;24.23;;;-4.10;99.90;;;;;;4995656;28;20572;-69
2021/12/27 09:14:37;;;;;;;54.37;23.73;;;-4.10;99.90;;;;;;4994549;28;20208;-69
2021/12/27 09:17:04;;;;;;;50.23;24.20;;;-4.10;99.90;;;;;;4994256;28;20223;-67
2021/12/27 09:19:31;;;;;;;57.20;26.00;;;-4.10;99.90;;;;;;4994243;28;20214;-68
2021/12/27 09:21:58;;;;;;;63.60;27.83;;;-4.10;99.90;;;;;;4993943;28;20218;-68
2021/12/27 09:24:25;;;;;;;67.87;28.03;;;-4.10;99.90;;;;;;4993765;28;20211;-67
2021/12/27 09:26:51;;;;;;;58.13;27.60;;;-4.10;99.90;;;;;;4993358;28;20234;-69
2021/12/27 09:29:20;;;;;;;52.70;25.87;;;-4.00;99.90;;;;;;4993501;28;20211;-69
2021/12/27 09:31:46;;;;;;;51.90;24.07;;;-3.90;99.90;;;;;;4992768;28;20226;-67
2021/12/27 09:34:13;;;;;;;50.27;23.97;;;-3.90;99.90;;;;;;4993586;28;20211;-69
2021/12/27 09:36:40;;;;;;;52.20;23.17;;;-3.80;99.90;;;;;;4980694;28;20206;-68
2021/12/27 09:39:07;;;;;;;46.30;21.43;;;-3.80;99.90;;;;;;4993270;28;20216;-68
2021/12/27 09:41:34;;;;;;;49.73;23.77;;;-3.70;99.90;;;;;;4993769;28;20211;-69
2021/12/27 09:44:01;;;;;;;52.20;25.70;;;-3.70;99.90;;;;;;4994425;28;20207;-68
2021/12/27 09:46:29;;;;;;;54.37;23.93;;;-3.70;99.90;;;;;;4993863;28;20705;-68
2021/12/27 09:48:59;;;;;;;54.83;25.00;;;-3.70;99.90;;;;;;4994064;28;20225;-70
2021/12/27 09:51:28;;;;;;;54.50;26.60;;;-3.70;99.90;;;;;;4993118;28;20258;-68
2021/12/27 09:53:55;;;;;;;52.40;25.20;;;-3.70;99.90;;;;;;4994401;28;20207;-69
2021/12/27 09:56:22;;;;;;;65.63;27.13;;;-3.70;99.90;;;;;;4994429;28;20676;-71
2021/12/27 09:58:49;;;;;;;56.53;25.53;;;-3.60;99.90;;;;;;4993296;28;20242;-69
2021/12/27 10:01:16;;;;;;;60.27;28.17;;;-3.60;99.90;;;;;;4993249;28;20235;-67
2021/12/27 10:03:49;;;;;;;62.13;28.73;;;-3.60;99.90;;;;;;4993637;28;20207;-67
2021/12/27 10:06:17;;;;;;;59.00;27.60;;;-3.60;99.90;;;;;;4993693;28;20238;-68
2021/12/27 10:08:46;;;;;;;65.70;28.17;;;-3.50;99.90;;;;;;4993243;28;20211;-68
2021/12/27 10:11:17;;;;;;;58.57;27.13;;;-3.50;99.90;;;;;;4993057;28;20259;-67
2021/12/27 10:13:59;;;;;;;63.03;27.00;;;-3.50;99.90;;;;;;4993140;28;20218;-68
2021/12/27 10:16:27;;;;;;;54.57;25.83;;;-3.40;99.90;;;;;;4993139;28;20234;-68
2021/12/27 10:18:56;;;;;;;56.33;25.90;;;-3.50;99.90;;;;;;4992793;28;20207;-69
2021/12/27 10:21:24;;;;;;;55.43;25.23;;;-3.60;99.90;;;;;;4993214;28;20691;-68
2021/12/27 10:24:02;;;;;;;54.83;25.10;;;-3.70;99.90;;;;;;4993253;28;20582;-68
2021/12/27 10:26:31;;;;;;;53.80;24.80;;;-3.70;99.90;;;;;;4992725;28;20211;-69
2021/12/27 10:29:14;;;;;;;58.00;26.13;;;-3.70;99.90;;;;;;4991781;28;20242;-68
2021/12/27 10:32:00;;;;;;;60.60;27.03;;;-3.80;99.90;;;;;;4991489;28;20211;-68
2021/12/27 10:34:30;;;;;;;62.93;28.60;;;-3.80;99.90;;;;;;4987481;28;20290;-69
2021/12/27 10:36:59;;;;;;;59.27;27.40;;;-3.70;99.90;;;;;;4992007;28;20200;-69
2021/12/27 10:39:29;;;;;;;58.67;27.70;;;-3.70;99.90;;;;;;4992031;28;20270;-69
2021/12/27 10:42:08;;;;;;;54.47;26.60;;;-3.70;99.90;;;;;;4987169;28;20188;-68
2021/12/27 10:44:36;;;;;;;58.03;27.33;;;-3.60;99.90;;;;;;4972987;28;20231;-69
2021/12/27 10:47:03;;;;;;;59.57;27.40;;;-3.50;99.90;;;;;;4987922;28;20323;-69
2021/12/27 10:49:47;;;;;;;59.50;26.67;;;-3.50;99.90;;;;;;4996976;28;20205;-67
2021/12/27 10:52:14;;;;;;;54.47;25.43;;;-3.40;99.90;;;;;;4994091;28;20250;-69
2021/12/27 10:54:41;;;;;;;58.30;26.13;;;-3.40;99.90;;;;;;4987581;28;20223;-68
2021/12/27 10:57:08;;;;;;;51.40;26.63;;;-3.30;99.90;;;;;;4983683;28;20679;-67
2021/12/27 10:59:35;;;;;;;57.27;26.23;;;-3.30;99.90;;;;;;4991464;28;20231;-67
2021/12/27 11:02:09;;;;;;;54.70;26.63;;;-3.40;99.90;;;;;;4992276;28;20817;-68
2021/12/27 11:04:37;;;;;;;64.50;27.40;;;-3.50;99.90;;;;;;4992354;28;20196;-69
2021/12/27 11:07:07;;;;;;;61.67;26.70;;;-3.50;99.90;;;;;;4992267;28;20684;-68
2021/12/27 11:09:35;;;;;;;57.73;26.20;;;-3.50;99.90;;;;;;4992148;28;20230;-69
2021/12/27 11:12:03;;;;;;;57.17;27.10;;;-3.50;99.90;;;;;;4992344;28;20637;-68
2021/12/27 11:14:30;;;;;;;56.90;26.37;;;-3.50;99.90;;;;;;4991597;28;20207;-69
2021/12/27 11:16:57;;;;;;;53.67;25.90;;;-3.50;99.90;;;;;;4991940;28;20199;-68
2021/12/27 11:19:23;;;;;;;55.93;27.00;;;-3.60;99.90;;;;;;4991901;28;20214;-66
2021/12/27 11:21:51;;;;;;;60.07;27.20;;;-3.60;99.90;;;;;;4992016;28;20200;-69
2021/12/27 11:24:19;;;;;;;61.67;28.83;;;-3.60;99.90;;;;;;4992038;28;20242;-69
2021/12/27 11:26:46;;;;;;;71.80;32.17;;;-3.60;99.90;;;;;;4991941;28;20251;-68
2021/12/27 11:29:16;;;;;;;67.57;30.53;;;-3.60;99.90;;;;;;4992174;28;20258;-68
2021/12/27 11:31:44;;;;;;;63.00;28.30;;;-3.60;99.90;;;;;;4991717;28;20353;-68
2021/12/27 11:34:12;;;;;;;53.50;24.57;;;-3.70;99.90;;;;;;4992234;28;20302;-70
2021/12/27 11:36:41;;;;;;;56.37;26.80;;;-3.70;99.90;;;;;;4991408;28;20282;-68
2021/12/27 11:39:28;;;;;;;58.40;26.77;;;-3.70;99.90;;;;;;4992215;28;20212;-69
2021/12/27 11:42:00;;;;;;;54.47;24.67;;;-3.60;99.90;;;;;;4991984;28;20216;-69
2021/12/27 11:44:36;;;;;;;51.10;23.80;;;-3.50;99.90;;;;;;4991508;28;20211;-69
2021/12/27 11:47:04;;;;;;;50.73;23.80;;;-3.50;99.90;;;;;;4991910;28;20218;-68
2021/12/27 11:49:36;;;;;;;52.70;24.77;;;-3.50;99.90;;;;;;4991451;28;20234;-68
2021/12/27 11:52:20;;;;;;;55.13;23.33;;;-3.70;99.90;;;;;;4994308;28;20200;-70
2021/12/27 11:54:55;;;;;;;47.83;22.30;;;-3.80;99.90;;;;;;4997952;28;20689;-71
2021/12/27 11:57:41;;;;;;;52.97;25.17;;;-3.80;99.90;;;;;;4975855;28;20189;-71
2021/12/27 12:00:38;;;;;;;56.00;24.63;;;-3.90;99.90;;;;;;4991674;28;20265;-71
2021/12/27 12:03:36;;;;;;;60.13;25.10;;;-4.00;99.90;;;;;;4994963;28;20660;-70
2021/12/27 12:06:03;;;;;;;51.50;24.27;;;-4.00;99.90;;;;;;4987784;28;20584;-69
2021/12/27 12:08:50;;;;;;;48.23;22.17;;;-4.10;99.90;;;;;;4994740;28;20230;-70
2021/12/27 12:11:31;;;;;;;50.70;23.03;;;-4.10;99.90;;;;;;4995486;28;20655;-70
2021/12/27 12:14:19;;;;;;;52.07;21.93;;;-4.10;99.90;;;;;;4995685;28;20199;-70
2021/12/27 12:16:49;;;;;;;49.53;23.63;;;-4.00;99.90;;;;;;4995031;28;20223;-71
2021/12/27 12:19:16;;;;;;;53.63;22.93;;;-4.00;99.90;;;;;;4995260;28;20207;-69
2021/12/27 12:21:44;;;;;;;49.77;23.50;;;-3.90;99.90;;;;;;4994986;28;20211;-70
2021/12/27 12:24:21;;;;;;;44.80;19.80;;;-3.90;99.90;;;;;;4994869;28;20212;-70
2021/12/27 12:26:52;;;;;;;42.97;20.20;;;-3.90;99.90;;;;;;4994813;28;20211;-71
2021/12/27 12:29:19;;;;;;;43.27;20.43;;;-4.00;99.90;;;;;;4994854;28;20187;-70
2021/12/27 12:31:46;;;;;;;48.60;21.70;;;-4.00;99.90;;;;;;4994928;28;20238;-70
2021/12/27 12:34:14;;;;;;;37.43;18.50;;;-3.90;99.90;;;;;;4994835;28;20291;-70